Time;durP1;ratioP1;P1;durP2;ratioP2;P2;SDS_P1;SDS_P2;PMS_P1;PMS_P2;Temp;Humidity;BMP_temperature;BMP_pressure;BME280_temperature;BME280_humidity;BME280_pressure;Samples;Min_cycle;Max_cycle;Signal;HPM_P1;HPM_P2
2022/04/26 03:36:42;;;;;;;3.65;1.90;;;;;;;17.59;58.91;96209.03;10334417;28;20034;-22
2022/04/26 03:41:42;;;;;;;4.05;1.80;;;;;;;17.60;57.69;96214.97;10335496;28;20344;-22
2022/04/26 03:46:42;;;;;;;3.07;1.60;;;;;;;17.59;58.84;96210.75;10374628;28;20046;-22
2022/04/26 03:51:43;;;;;;;2.78;1.70;;;;;;;17.63;58.25;96220.84;10368140;28;20032;-24
2022/04/26 03:56:43;;;;;;;2.83;1.70;;;;;;;17.62;57.73;96219.19;10368952;28;20500;-23
2022/04/26 04:01:46;;;;;;;1.63;1.30;;;;;;;17.67;58.43;96232.63;10373337;28;20073;-22
2022/04/26 04:06:46;;;;;;;4.68;1.60;;;;;;;17.72;57.88;96222.47;10369187;28;20096;-22
2022/04/26 04:11:47;;;;;;;2.47;1.67;;;;;;;17.69;57.83;96225.03;10373702;28;20508;-22
2022/04/26 04:16:48;;;;;;;4.43;1.73;;;;;;;17.73;57.46;96221.66;10372912;28;20038;-22
2022/04/26 04:21:49;;;;;;;3.33;1.30;;;;;;;17.69;57.94;96212.38;10365723;28;20384;-23
2022/04/26 04:26:50;;;;;;;3.55;2.08;;;;;;;17.66;57.58;96214.94;10332622;28;20038;-22
2022/04/26 04:31:50;;;;;;;3.57;1.60;;;;;;;17.75;57.67;96238.50;10332394;28;20067;-22
2022/04/26 04:36:50;;;;;;;3.87;1.57;;;;;;;17.75;58.01;96243.56;10346758;28;20026;-23
2022/04/26 04:41:51;;;;;;;2.83;1.90;;;;;;;17.77;57.77;96243.56;10332497;28;20030;-22
2022/04/26 04:46:51;;;;;;;3.47;1.87;;;;;;;17.77;58.11;96254.56;10330674;28;20297;-22
2022/04/26 04:51:51;;;;;;;2.40;1.57;;;;;;;17.75;58.21;96260.47;10338840;28;20025;-22
2022/04/26 04:56:52;;;;;;;3.47;1.53;;;;;;;17.73;58.25;96279.91;10372216;28;20375;-22
2022/04/26 05:01:52;;;;;;;5.70;2.23;;;;;;;17.77;57.42;96272.28;10344910;28;20053;-22
2022/04/26 05:06:52;;;;;;;6.47;1.90;;;;;;;17.53;57.42;96268.97;10330517;28;20034;-22
2022/04/26 05:11:53;;;;;;;6.83;1.67;;;;;;;17.67;57.82;96277.38;10328454;28;20529;-22
2022/04/26 05:16:53;;;;;;;5.70;1.97;;;;;;;17.72;58.24;96278.19;10330398;28;20038;-22
2022/04/26 05:21:53;;;;;;;3.53;2.07;;;;;;;17.72;58.38;96290.84;10330304;28;20061;-22
2022/04/26 05:26:54;;;;;;;4.60;1.67;;;;;;;17.73;58.05;96287.50;10330422;28;20081;-22
2022/04/26 05:31:54;;;;;;;5.83;1.83;;;;;;;17.76;57.23;96290.00;10330137;28;20185;-22
2022/04/26 05:36:57;;;;;;;17.27;2.83;;;;;;;17.61;57.68;96292.56;10329470;28;20588;-22
2022/04/26 05:41:57;;;;;;;8.23;2.28;;;;;;;17.67;57.79;96295.09;10329964;28;20266;-21
2022/04/26 05:46:57;;;;;;;10.63;2.43;;;;;;;17.65;57.95;96296.81;10329617;28;20054;-22
2022/04/26 05:51:58;;;;;;;5.13;1.77;;;;;;;17.67;57.50;96297.63;10337112;28;20036;-23
2022/04/26 05:56:58;;;;;;;4.90;2.07;;;;;;;17.67;58.41;96295.09;10369800;28;20044;-22
2022/04/26 06:01:58;;;;;;;4.93;1.70;;;;;;;17.66;57.25;96298.47;10351853;28;20042;-23
2022/04/26 06:07:00;;;;;;;6.23;1.60;;;;;;;17.67;57.69;96297.63;10329420;28;20030;-22
2022/04/26 06:12:01;;;;;;;4.60;2.05;;;;;;;17.69;58.70;96303.53;10328874;28;20120;-22
2022/04/26 06:17:01;;;;;;;5.10;1.77;;;;;;;17.66;58.37;96298.47;10329129;28;20459;-22
2022/04/26 06:22:02;;;;;;;2.63;1.40;;;;;;;17.66;57.89;96313.66;10336750;28;20033;-22
2022/04/26 06:27:03;;;;;;;4.80;1.90;;;;;;;17.66;58.55;96303.53;10369128;28;20068;-22
2022/04/26 06:32:03;;;;;;;3.70;1.42;;;;;;;17.64;58.28;96290.03;10350932;28;20057;-22
2022/04/26 06:37:04;;;;;;;3.47;1.92;;;;;;;17.62;58.53;96268.94;10336165;28;20038;-22
2022/04/26 06:42:04;;;;;;;2.90;1.30;;;;;;;17.62;58.50;96285.00;10368451;28;20381;-22
2022/04/26 06:47:05;;;;;;;4.87;1.67;;;;;;;17.62;58.33;96310.31;10355939;28;20042;-22
2022/04/26 06:52:06;;;;;;;1.52;1.35;;;;;;;17.60;58.29;96294.28;10327158;28;20294;-22
2022/04/26 06:57:06;;;;;;;3.60;1.48;;;;;;;17.63;58.41;96321.25;10327773;28;20077;-23
2022/04/26 07:02:06;;;;;;;3.70;1.37;;;;;;;17.62;58.15;96319.56;10341175;28;20049;-22
2022/04/26 07:07:07;;;;;;;3.77;1.90;;;;;;;17.61;58.73;96307.75;10360452;28;20059;-23
2022/04/26 07:12:07;;;;;;;8.00;1.43;;;;;;;17.63;58.27;96314.50;10340592;28;20336;-22
2022/04/26 07:17:08;;;;;;;4.03;1.45;;;;;;;17.56;58.35;96296.84;10352940;28;20080;-22
2022/04/26 07:22:09;;;;;;;2.80;1.38;;;;;;;17.64;58.19;96320.41;10371151;28;20057;-22
2022/04/26 07:27:11;;;;;;;2.25;1.40;;;;;;;17.61;58.38;96325.47;10340698;28;20511;-22
2022/04/26 07:32:11;;;;;;;2.30;1.30;;;;;;;17.61;58.41;96340.66;10367139;28;20496;-22
2022/04/26 07:37:11;;;;;;;2.77;1.37;;;;;;;17.61;58.14;96345.72;10370285;28;20042;-22
2022/04/26 07:42:12;;;;;;;3.20;1.93;;;;;;;17.61;58.17;96355.84;10340593;28;20382;-23
2022/04/26 07:47:12;;;;;;;3.67;2.03;;;;;;;17.60;58.28;96374.44;10339884;28;20560;-22
2022/04/26 07:52:13;;;;;;;2.43;1.47;;;;;;;17.59;58.15;96373.56;10339635;28;20085;-22
2022/04/26 07:57:13;;;;;;;3.92;1.65;;;;;;;17.61;58.15;96376.09;10340488;28;20767;-22
2022/04/26 08:02:14;;;;;;;2.33;1.03;;;;;;;17.58;58.24;96384.53;10339899;28;20045;-22
2022/04/26 08:07:14;;;;;;;3.33;1.35;;;;;;;17.60;57.89;96384.56;10338955;28;20657;-22
2022/04/26 08:12:15;;;;;;;2.17;1.27;;;;;;;17.60;58.67;96385.41;10339770;28;20404;-23
2022/04/26 08:17:15;;;;;;;2.77;1.30;;;;;;;17.62;58.71;96387.91;10339429;28;20297;-23
2022/04/26 08:22:16;;;;;;;2.60;1.45;;;;;;;17.56;58.40;96382.88;10331749;28;20069;-23
2022/04/26 08:27:22;;;;;;;2.42;1.27;;;;;;;17.60;58.31;96400.59;10332411;28;20453;-23
2022/04/26 08:32:24;;;;;;;1.35;1.20;;;;;;;17.58;57.83;96401.44;10362765;28;20042;-22
2022/04/26 08:37:24;;;;;;;3.67;1.25;;;;;;;17.61;57.95;96406.50;10361100;28;20042;-22
2022/04/26 08:42:35;;;;;;;2.40;1.40;;;;;;;17.59;57.96;96411.53;10332327;28;20043;-23
2022/04/26 08:52:57;;;;;;;3.65;1.20;;;;;;;17.56;57.73;96406.50;10331346;28;20516;-22
2022/04/26 08:57:58;;;;;;;1.52;1.17;;;;;;;17.60;57.65;96425.06;10332085;28;20067;-23
2022/04/26 09:03:04;;;;;;;1.35;1.00;;;;;;;17.57;57.89;96410.72;10331113;28;20261;-24
2022/04/26 09:08:20;;;;;;;1.27;1.10;;;;;;;17.59;57.44;96415.78;10348100;28;20084;-22
2022/04/26 09:13:23;;;;;;;1.43;1.00;;;;;;;17.58;58.41;96416.63;10371227;28;20029;-22
2022/04/26 09:18:26;;;;;;;2.00;1.17;;;;;;;17.59;58.91;96425.91;10337572;28;20121;-22
2022/04/26 09:23:28;;;;;;;1.42;1.20;;;;;;;17.61;58.31;96432.66;10349806;28;20038;-22
2022/04/26 09:28:30;;;;;;;1.92;1.05;;;;;;;17.57;58.52;96430.13;10371671;28;20440;-21
2022/04/26 09:33:42;;;;;;;2.85;1.08;;;;;;;17.58;58.31;96439.41;10334425;28;20113;-22
2022/04/26 09:38:55;;;;;;;1.42;1.08;;;;;;;17.57;58.38;96440.25;10329911;28;20501;-22
2022/04/26 09:44:07;;;;;;;2.22;1.00;;;;;;;17.59;57.69;96443.63;10329449;28;20038;-22
2022/04/26 09:49:09;;;;;;;2.15;1.20;;;;;;;17.57;58.15;96440.25;10329825;28;20045;-21
2022/04/26 09:54:10;;;;;;;2.03;1.23;;;;;;;17.59;57.25;96443.63;10354690;28;20034;-23
2022/04/26 09:59:32;;;;;;;0.87;0.80;;;;;;;17.58;57.49;96447.81;10369838;28;20345;-22
2022/04/26 10:04:36;;;;;;;2.72;1.20;;;;;;;17.57;57.40;96440.25;10327971;28;20341;-21
2022/04/26 10:09:38;;;;;;;1.67;1.10;;;;;;;17.59;57.17;96436.84;10328598;28;20385;-22
2022/04/26 10:14:38;;;;;;;1.27;1.02;;;;;;;17.58;57.26;96442.75;10328814;28;20392;-22
2022/04/26 10:19:41;;;;;;;1.42;1.13;;;;;;;17.57;58.76;96442.78;10328515;28;20034;-22
2022/04/26 10:25:08;;;;;;;2.10;1.13;;;;;;;17.62;58.22;96439.41;10325871;28;20149;-22
2022/04/26 10:30:08;;;;;;;;;;;;;;;17.63;57.98;96450.34;10328476;28;20496;-21
2022/04/26 10:35:24;;;;;;;4.97;1.90;;;;;;;17.56;53.24;96463.88;10327705;28;19924;-22
2022/04/26 10:40:26;;;;;;;4.43;1.52;;;;;;;17.58;56.82;96478.19;10335290;28;20042;-21
2022/04/26 10:45:26;;;;;;;1.15;0.95;;;;;;;17.63;57.05;96511.09;10368118;28;20026;-21
2022/04/26 10:50:31;;;;;;;1.55;1.08;;;;;;;17.63;57.36;96551.63;10343429;28;20065;-22
2022/04/26 10:55:31;;;;;;;2.92;1.08;;;;;;;17.64;57.13;96555.81;10327161;28;20081;-22
2022/04/26 11:00:34;;;;;;;1.97;1.00;;;;;;;17.66;57.22;96567.66;10327775;28;20389;-22
2022/04/26 11:05:34;;;;;;;1.52;1.17;;;;;;;17.67;57.14;96583.69;10327834;28;20048;-22
2022/04/26 11:16:12;;;;;;;3.80;1.35;;;;;;;17.70;57.67;96568.50;10367480;28;20034;-22
2022/04/26 11:21:13;;;;;;;2.42;1.63;;;;;;;17.69;59.42;96569.34;10332759;28;20034;-22
2022/04/26 11:31:41;;;;;;;3.53;1.60;;;;;;;17.67;58.72;96554.16;10326653;28;20048;-22
2022/04/26 11:36:42;;;;;;;1.48;1.27;;;;;;;17.67;58.27;96550.78;10326699;28;20042;-22
2022/04/26 11:41:43;;;;;;;6.80;2.17;;;;;;;17.54;58.45;96556.66;10326601;28;20038;-21
2022/04/26 11:46:59;;;;;;;11.52;2.00;;;;;;;17.61;58.06;96554.16;10326680;28;20336;-22
2022/04/26 11:52:00;;;;;;;8.95;2.00;;;;;;;17.63;57.59;96561.72;10365771;28;20088;-22
2022/04/26 11:57:00;;;;;;;8.85;1.70;;;;;;;17.63;57.62;96564.25;10369086;28;20034;-22
2022/04/26 12:02:02;;;;;;;8.03;2.87;;;;;;;17.60;58.95;96547.41;10399848;28;20037;-21
2022/04/26 12:07:02;;;;;;;14.00;1.75;;;;;;;17.60;57.46;96559.22;10387337;28;20506;-21
2022/04/26 12:12:05;;;;;;;6.88;2.30;;;;;;;17.62;57.58;96560.06;10395448;28;20029;-21
2022/04/26 12:17:16;;;;;;;3.95;1.42;;;;;;;17.59;57.68;96560.06;10385080;28;20030;-22
2022/04/26 12:22:18;;;;;;;2.88;1.63;;;;;;;17.63;59.20;96561.72;10394467;28;20526;-22
2022/04/26 12:27:22;;;;;;;7.57;2.85;;;;;;;17.69;59.77;96564.28;10369018;28;20124;-21
2022/04/26 12:32:30;;;;;;;4.50;1.45;;;;;;;17.66;59.29;96566.81;10383113;28;20049;-22
2022/04/26 12:37:31;;;;;;;6.78;1.75;;;;;;;17.64;58.20;96556.69;10396831;28;20083;-21
2022/04/26 12:42:39;;;;;;;8.45;1.60;;;;;;;17.63;57.89;96556.69;10365332;28;20062;-22
2022/04/26 12:53:06;;;;;;;7.95;2.45;;;;;;;17.61;57.67;96548.25;10390244;28;20041;-22
2022/04/26 12:58:09;;;;;;;4.25;2.30;;;;;;;17.60;57.37;96547.41;10373844;28;20116;-21
2022/04/26 13:03:11;;;;;;;4.03;1.92;;;;;;;17.50;58.98;96550.75;10387983;28;20451;-21
2022/04/26 13:08:19;;;;;;;5.68;2.35;;;;;;;17.63;57.59;96556.69;10386867;28;20038;-22
2022/04/26 13:13:19;;;;;;;4.50;1.90;;;;;;;17.64;57.49;96558.34;10389209;28;20029;-22
2022/04/26 13:18:20;;;;;;;2.77;1.83;;;;;;;17.62;57.58;96547.41;10380726;28;20038;-22
2022/04/26 13:23:21;;;;;;;11.38;2.17;;;;;;;17.60;57.47;96547.41;10401611;28;20318;-21
2022/04/26 13:28:21;;;;;;;8.45;2.05;;;;;;;17.61;59.27;96544.03;10346585;28;20108;-22
2022/04/26 13:33:22;;;;;;;6.53;1.80;;;;;;;17.62;59.67;96549.94;10331138;28;20034;-21
2022/04/26 13:38:22;;;;;;;3.70;1.60;;;;;;;17.60;58.26;96541.50;10330452;28;20097;-21
2022/04/26 13:43:23;;;;;;;5.63;1.80;;;;;;;17.62;57.84;96539.81;10360837;28;20076;-21
2022/04/26 13:48:24;;;;;;;4.28;1.70;;;;;;;17.62;57.83;96539.81;10364689;28;20077;-22
2022/04/26 13:53:24;;;;;;;4.13;1.73;;;;;;;17.61;58.18;96538.97;10329163;28;20030;-22
2022/04/26 13:58:24;;;;;;;3.27;1.40;;;;;;;17.62;57.67;96540.66;10329241;28;20062;-21
2022/04/26 14:03:27;;;;;;;5.67;1.70;;;;;;;17.57;57.67;96533.91;10328477;28;20038;-22
2022/04/26 14:08:28;;;;;;;2.63;1.63;;;;;;;17.60;57.96;96536.44;10329605;28;20304;-22
2022/04/26 14:13:28;;;;;;;3.35;1.38;;;;;;;17.60;57.71;96541.50;10328316;28;20034;-22
2022/04/26 14:21:46;;;;;;;3.33;1.47;;;;;;;17.61;57.75;96538.13;10327358;28;20501;-21
2022/04/26 14:23:49;;;;;;;2.75;1.50;;;;;;;17.57;57.73;96541.50;10327987;28;20459;-22
2022/04/26 14:28:49;;;;;;;2.80;1.73;;;;;;;17.58;58.06;96545.72;10328930;28;20085;-21
2022/04/26 14:33:49;;;;;;;3.35;1.65;;;;;;;17.63;59.55;96544.00;10326779;28;20037;-21
2022/04/26 14:38:50;;;;;;;6.10;1.63;;;;;;;17.63;59.36;96546.53;10334220;28;20034;-21
2022/04/26 14:43:50;;;;;;;53.10;6.53;;;;;;;17.61;57.97;96549.09;10356610;28;20049;-22
2022/04/26 14:48:51;;;;;;;3.10;1.30;;;;;;;17.64;57.16;96544.03;10359311;28;20030;-21
2022/04/26 14:53:51;;;;;;;2.57;1.30;;;;;;;17.59;57.23;96540.63;10389522;28;20040;-21
2022/04/26 14:58:52;;;;;;;2.83;1.55;;;;;;;17.63;57.33;96544.00;10380200;28;20088;-22
2022/04/26 15:03:52;;;;;;;5.03;1.20;;;;;;;17.62;57.34;96547.41;10392992;28;20034;-22
2022/04/26 15:19:31;;;;;;;4.60;1.60;;;;;;;17.62;56.67;96562.59;10368331;28;20599;-22
2022/04/26 15:24:31;;;;;;;1.65;1.25;;;;;;;17.60;57.46;96582.84;10387449;28;20043;-22
2022/04/26 15:29:32;;;;;;;2.95;1.30;;;;;;;17.61;57.16;96582.00;10391280;28;20033;-22
2022/04/26 15:34:32;;;;;;;6.10;1.55;;;;;;;17.76;60.13;96582.00;10392840;28;20495;-22
2022/04/26 15:39:33;;;;;;;7.50;2.00;;;;;;;17.85;60.10;96588.75;10389214;28;20034;-22
2022/04/26 15:44:34;;;;;;;3.70;1.33;;;;;;;17.81;58.00;96598.06;10364233;28;20076;-22
2022/04/26 15:49:34;;;;;;;2.28;1.20;;;;;;;17.75;57.39;96592.97;10378342;28;20042;-21
2022/04/26 15:54:36;;;;;;;2.30;1.20;;;;;;;17.74;57.04;96600.59;10373548;28;20026;-21
2022/04/26 15:59:36;;;;;;;2.72;1.45;;;;;;;17.72;57.44;96602.25;10369377;28;20044;-22
2022/04/26 16:04:37;;;;;;;2.97;1.10;;;;;;;17.71;57.12;96605.63;10357056;28;20567;-22
2022/04/26 16:20:31;;;;;;;7.32;1.65;;;;;;;17.69;57.54;96617.44;10357839;28;20089;-21
2022/04/26 16:25:32;;;;;;;5.32;1.90;;;;;;;17.67;57.97;96629.28;10332361;28;20477;-22
2022/04/26 16:30:33;;;;;;;5.38;1.55;;;;;;;17.68;58.02;96630.94;10367944;28;20060;-21
2022/04/26 16:35:34;;;;;;;5.22;1.80;;;;;;;17.69;58.03;96625.03;10358252;28;20547;-22
2022/04/26 16:40:35;;;;;;;7.68;1.80;;;;;;;17.69;60.33;96633.50;10340470;28;20030;-22
2022/04/26 16:45:35;;;;;;;5.57;1.80;;;;;;;17.71;59.99;96636.00;10372149;28;20026;-21
2022/04/26 16:50:35;;;;;;;2.50;1.40;;;;;;;17.70;58.70;96636.84;10346198;28;20054;-21
2022/04/26 16:55:36;;;;;;;5.15;2.13;;;;;;;17.67;57.03;96647.00;10355912;28;20477;-21
2022/04/26 17:00:36;;;;;;;7.47;1.77;;;;;;;17.66;57.40;96645.31;10367910;28;20133;-22
2022/04/26 17:05:44;;;;;;;2.97;1.43;;;;;;;17.62;57.85;96646.13;10342315;28;20985;-22
2022/04/26 17:10:47;;;;;;;4.07;1.27;;;;;;;17.69;57.90;96647.81;10330136;28;20035;-22
2022/04/26 17:15:47;;;;;;;2.28;1.45;;;;;;;17.70;57.93;96652.03;10352304;28;20091;-22
2022/04/26 17:20:48;;;;;;;2.25;1.27;;;;;;;17.71;57.51;96653.72;10368136;28;20400;-22
2022/04/26 17:25:49;;;;;;;3.47;1.40;;;;;;;17.71;57.54;96656.28;10359660;28;20026;-22
2022/04/26 17:30:50;;;;;;;7.35;1.55;;;;;;;17.69;57.59;96652.91;10368082;28;20036;-19
2022/04/26 17:35:50;;;;;;;3.53;1.27;;;;;;;17.70;57.87;96647.84;10359864;28;20040;-23
2022/04/26 17:40:51;;;;;;;6.03;2.03;;;;;;;17.73;58.60;96655.44;10356684;28;20034;-22
2022/04/26 17:45:51;;;;;;;5.50;1.80;;;;;;;17.70;60.27;96664.72;10368291;28;20038;-22
2022/04/26 17:50:52;;;;;;;5.47;1.35;;;;;;;17.72;58.54;96663.00;10368265;28;20066;-22
2022/04/26 18:01:16;;;;;;;1.88;1.33;;;;;;;17.68;57.89;96666.41;10367592;28;20048;-21
2022/04/26 18:06:17;;;;;;;2.97;1.55;;;;;;;17.63;57.81;96676.50;10388205;28;20137;-23
2022/04/26 18:11:17;;;;;;;5.75;1.30;;;;;;;17.67;57.91;96690.03;10378192;28;20030;-23
2022/04/26 18:16:19;;;;;;;7.50;2.55;;;;;;;17.71;57.44;96691.72;10327748;28;20501;-22
2022/04/26 18:21:20;;;;;;;3.42;1.77;;;;;;;17.69;58.10;96701.00;10326904;28;20411;-22
2022/04/26 18:26:21;;;;;;;6.20;1.80;;;;;;;17.68;58.13;96707.72;10328171;28;20038;-23
2022/04/26 18:31:26;;;;;;;2.67;1.55;;;;;;;17.68;58.28;96719.56;10356073;28;20033;-22
2022/04/26 18:36:27;;;;;;;3.70;1.42;;;;;;;17.64;58.32;96721.25;10366602;28;20519;-22
2022/04/26 18:41:29;;;;;;;5.13;2.03;;;;;;;17.69;59.88;96734.78;10350550;28;20034;-22
2022/04/26 18:46:30;;;;;;;5.13;2.00;;;;;;;17.73;60.68;96735.63;10327064;28;20048;-22
2022/04/26 18:51:30;;;;;;;4.70;2.10;;;;;;;17.73;58.82;96746.59;10358488;28;20036;-22
2022/04/26 18:56:31;;;;;;;4.53;1.60;;;;;;;17.72;57.89;96767.69;10348849;28;20037;-22
2022/04/26 19:01:31;;;;;;;6.95;2.42;;;;;;;17.71;58.29;96765.13;10337482;28;20254;-22
2022/04/26 19:06:32;;;;;;;3.15;1.45;;;;;;;17.70;58.41;96776.09;10325832;28;20042;-23
2022/04/26 19:16:51;;;;;;;7.53;2.08;;;;;;;17.68;58.44;96787.94;10348121;28;20355;-23
2022/04/26 19:21:51;;;;;;;4.07;1.37;;;;;;;17.68;57.93;96782.88;10329671;28;20093;-22
2022/04/26 19:26:52;;;;;;;4.18;1.65;;;;;;;17.67;59.52;96782.00;10325956;28;20035;-23
2022/04/26 19:31:54;;;;;;;4.85;2.53;;;;;;;17.70;60.78;96797.22;10359043;28;20096;-22
2022/04/26 19:36:54;;;;;;;4.85;2.00;;;;;;;17.69;59.90;96804.81;10330649;28;20035;-23
2022/04/26 19:41:55;;;;;;;2.13;1.30;;;;;;;17.69;58.14;96814.94;10325226;28;20042;-23
2022/04/26 19:46:58;;;;;;;3.80;1.48;;;;;;;17.72;58.35;96807.34;10325740;28;20042;-22
2022/04/26 19:51:59;;;;;;;4.35;2.05;;;;;;;17.71;58.85;96814.09;10325202;28;20061;-22
2022/04/26 19:56:59;;;;;;;4.25;2.25;;;;;;;17.71;58.06;96814.09;10346453;28;20030;-22
2022/04/26 20:01:59;;;;;;;2.90;1.53;;;;;;;17.73;57.95;96816.66;10366222;28;20129;-21
2022/04/26 20:07:00;;;;;;;1.80;1.37;;;;;;;17.68;58.03;96803.94;10327631;28;20088;-22
2022/04/26 20:12:00;;;;;;;2.75;1.52;;;;;;;17.55;58.39;96776.03;10324644;28;20062;-22
2022/04/26 20:17:02;;;;;;;3.53;1.58;;;;;;;17.69;58.64;96805.66;10329863;28;20027;-22
2022/04/26 20:22:02;;;;;;;4.88;2.00;;;;;;;17.67;60.24;96802.25;10332842;28;20034;-22
2022/04/26 20:32:24;;;;;;;5.07;1.63;;;;;;;17.71;59.23;96808.19;10376296;28;20038;-22
2022/04/26 20:37:24;;;;;;;2.35;1.50;;;;;;;17.68;58.38;96803.13;10344422;28;20030;-23
2022/04/26 20:42:25;;;;;;;3.40;1.63;;;;;;;17.66;58.15;96809.88;10354086;28;20503;-23
2022/04/26 20:47:25;;;;;;;5.05;2.00;;;;;;;17.65;58.30;96814.06;10371849;28;20034;-22
2022/04/26 20:52:26;;;;;;;3.63;1.98;;;;;;;17.67;58.50;96817.44;10343271;28;20515;-22
2022/04/26 20:57:26;;;;;;;2.87;1.73;;;;;;;17.69;57.98;96820.84;10330997;28;20622;-22
2022/04/26 21:02:26;;;;;;;4.00;1.60;;;;;;;17.64;58.39;96807.31;10330050;28;20118;-22
2022/04/26 21:07:27;;;;;;;4.93;2.63;;;;;;;17.46;57.55;96813.97;10371217;28;20113;-22
2022/04/26 21:12:27;;;;;;;3.70;1.58;;;;;;;17.59;57.71;96815.75;10345925;28;20034;-22
2022/04/26 21:17:28;;;;;;;3.22;2.35;;;;;;;17.64;60.11;96821.66;10330012;28;20041;-22
2022/04/26 21:22:28;;;;;;;4.33;1.87;;;;;;;17.65;59.77;96833.50;10330084;28;20496;-22
2022/04/26 21:27:28;;;;;;;2.10;1.80;;;;;;;17.62;59.58;96828.41;10330188;28;20038;-22
2022/04/26 21:32:29;;;;;;;2.10;1.70;;;;;;;17.63;59.24;96830.94;10351756;28;20045;-22
2022/04/26 21:37:29;;;;;;;4.23;1.40;;;;;;;17.62;58.45;96828.41;10408190;28;20057;-22
2022/04/26 21:42:30;;;;;;;2.83;1.73;;;;;;;17.65;57.87;96828.44;10375410;28;20030;-22
2022/04/26 21:47:30;;;;;;;3.25;1.48;;;;;;;17.66;57.99;96827.59;10369471;28;20790;-23
2022/04/26 21:52:32;;;;;;;5.33;3.10;;;;;;;17.66;57.73;96830.13;10364631;28;20030;-23
2022/04/26 21:57:32;;;;;;;2.03;1.73;;;;;;;17.65;58.67;96834.31;10340260;28;20109;-21
2022/04/26 22:02:32;;;;;;;5.63;2.37;;;;;;;17.67;58.06;96837.69;10326219;28;20046;-22
2022/04/26 22:07:33;;;;;;;2.53;1.60;;;;;;;17.65;57.86;96839.38;10328691;28;20489;-23
2022/04/26 22:12:33;;;;;;;2.20;1.90;;;;;;;17.68;58.40;96851.22;10353761;28;20112;-22
2022/04/26 22:17:34;;;;;;;4.80;2.40;;;;;;;17.65;61.24;96858.81;10370088;28;20034;-22
2022/04/26 22:22:34;;;;;;;4.53;2.03;;;;;;;17.63;60.98;96856.25;10338288;28;20145;-22
2022/04/26 22:27:35;;;;;;;2.70;1.52;;;;;;;17.63;60.65;96855.41;10328874;28;20397;-23
2022/04/26 22:32:36;;;;;;;3.05;2.00;;;;;;;17.55;59.29;96842.72;10328307;28;20121;-22
2022/04/26 22:37:38;;;;;;;3.20;1.60;;;;;;;17.63;58.58;96861.31;10366613;28;20034;-22
2022/04/26 22:42:38;;;;;;;5.18;2.13;;;;;;;17.62;59.60;96868.91;10341806;28;20034;-22
2022/04/26 22:47:39;;;;;;;2.90;1.45;;;;;;;17.62;59.80;96873.97;10374946;28;20033;-22
2022/04/26 22:52:39;;;;;;;1.42;1.33;;;;;;;17.64;58.45;96874.81;10352102;28;20507;-22
2022/04/26 22:57:39;;;;;;;4.40;1.60;;;;;;;17.62;57.93;96876.50;10353204;28;20034;-21
2022/04/26 23:02:40;;;;;;;2.17;1.65;;;;;;;17.64;58.35;96883.28;10362722;28;20432;-22
2022/04/26 23:07:41;;;;;;;2.65;1.55;;;;;;;17.65;58.59;96889.19;10328690;28;20368;-22
2022/04/26 23:12:41;;;;;;;1.83;1.50;;;;;;;17.64;58.63;96884.94;10326935;28;20038;-22
2022/04/26 23:17:42;;;;;;;2.40;2.00;;;;;;;17.65;60.87;96884.13;10327223;28;20033;-22
2022/04/26 23:22:43;;;;;;;2.70;1.90;;;;;;;17.64;60.64;96882.41;10326397;28;20046;-22
2022/04/26 23:27:43;;;;;;;1.70;1.45;;;;;;;17.63;60.14;96889.19;10327306;28;20105;-22
2022/04/26 23:32:43;;;;;;;2.37;1.47;;;;;;;17.64;59.69;96892.53;10326934;28;20080;-22
2022/04/26 23:37:44;;;;;;;2.40;1.80;;;;;;;17.60;60.18;96884.09;10362627;28;20030;-21
2022/04/26 23:42:44;;;;;;;3.95;1.73;;;;;;;17.61;60.42;96890.84;10339633;28;20048;-22
2022/04/26 23:47:45;;;;;;;2.20;1.53;;;;;;;17.61;59.24;96893.41;10326750;28;20034;-22
2022/04/26 23:52:54;;;;;;;2.83;1.77;;;;;;;17.62;59.56;96884.09;10333019;28;20502;-22
2022/04/26 23:57:56;;;;;;;2.30;1.90;;;;;;;17.61;59.61;96895.06;10334544;28;20183;-22
